sensor_id;sensor_type;location;lat;lon;timestamp;pressure;altitude;pressure_sealevel;temperature;humidity
25350;BME280;13302;48.796;11.978;2024-02-04T00:02:30;97732.16;;;7.14;45.55
25350;BME280;13302;48.796;11.978;2024-02-04T00:05:17;97728.38;;;7.10;45.81
25350;BME280;13302;48.796;11.978;2024-02-04T00:08:05;97726.34;;;7.15;45.59
25350;BME280;13302;48.796;11.978;2024-02-04T00:10:52;97728.91;;;7.12;45.79
25350;BME280;13302;48.796;11.978;2024-02-04T00:13:39;97723.53;;;7.07;45.72
25350;BME280;13302;48.796;11.978;2024-02-04T00:16:26;97719.69;;;7.30;45.16
25350;BME280;13302;48.796;11.978;2024-02-04T00:19:13;97723.69;;;7.24;45.30
25350;BME280;13302;48.796;11.978;2024-02-04T00:22:01;97709.66;;;7.25;45.28
25350;BME280;13302;48.796;11.978;2024-02-04T00:24:48;97705.38;;;7.19;45.58
25350;BME280;13302;48.796;11.978;2024-02-04T00:27:35;97702.63;;;7.19;45.54
25350;BME280;13302;48.796;11.978;2024-02-04T00:30:22;97693.44;;;7.24;45.56
25350;BME280;13302;48.796;11.978;2024-02-04T00:33:09;97675.44;;;7.18;45.59
25350;BME280;13302;48.796;11.978;2024-02-04T00:35:56;97670.44;;;7.20;45.68
25350;BME280;13302;48.796;11.978;2024-02-04T00:38:43;97665.16;;;7.10;45.66
25350;BME280;13302;48.796;11.978;2024-02-04T00:41:30;97677.16;;;7.14;45.98
25350;BME280;13302;48.796;11.978;2024-02-04T00:44:17;97675.94;;;7.20;45.71
25350;BME280;13302;48.796;11.978;2024-02-04T00:47:04;97675.94;;;7.20;45.46
25350;BME280;13302;48.796;11.978;2024-02-04T00:49:51;97675.03;;;7.24;45.30
25350;BME280;13302;48.796;11.978;2024-02-04T00:52:39;97677.06;;;7.19;45.40
25350;BME280;13302;48.796;11.978;2024-02-04T00:55:26;97679.31;;;7.17;45.45
25350;BME280;13302;48.796;11.978;2024-02-04T00:58:13;97665.88;;;7.15;45.81
25350;BME280;13302;48.796;11.978;2024-02-04T01:01:00;97667.16;;;7.18;45.57
25350;BME280;13302;48.796;11.978;2024-02-04T01:03:47;97663.56;;;7.09;45.79
25350;BME280;13302;48.796;11.978;2024-02-04T01:06:34;97657.91;;;7.14;45.60
25350;BME280;13302;48.796;11.978;2024-02-04T01:09:37;97653.47;;;7.04;45.80
25350;BME280;13302;48.796;11.978;2024-02-04T01:12:24;97661.91;;;7.08;45.72
25350;BME280;13302;48.796;11.978;2024-02-04T01:15:11;97664.13;;;7.19;45.70
25350;BME280;13302;48.796;11.978;2024-02-04T01:17:58;97669.63;;;7.19;45.70
25350;BME280;13302;48.796;11.978;2024-02-04T01:20:45;97666.06;;;7.19;45.70
25350;BME280;13302;48.796;11.978;2024-02-04T01:23:32;97680.31;;;7.21;45.63
25350;BME280;13302;48.796;11.978;2024-02-04T01:26:19;97672.38;;;7.19;45.80
25350;BME280;13302;48.796;11.978;2024-02-04T01:29:07;97658.44;;;7.16;45.63
25350;BME280;13302;48.796;11.978;2024-02-04T01:31:54;97649.84;;;7.17;45.81
25350;BME280;13302;48.796;11.978;2024-02-04T01:34:41;97650.19;;;7.16;45.75
25350;BME280;13302;48.796;11.978;2024-02-04T01:37:28;97646.53;;;7.07;45.90
25350;BME280;13302;48.796;11.978;2024-02-04T01:40:15;97645.91;;;7.10;45.55
25350;BME280;13302;48.796;11.978;2024-02-04T01:43:02;97653.88;;;7.11;45.61
25350;BME280;13302;48.796;11.978;2024-02-04T01:45:50;97664.03;;;7.11;45.73
25350;BME280;13302;48.796;11.978;2024-02-04T01:48:39;97659.66;;;7.10;45.76
25350;BME280;13302;48.796;11.978;2024-02-04T01:51:26;97673.94;;;6.98;46.05
25350;BME280;13302;48.796;11.978;2024-02-04T01:54:14;97674.75;;;7.12;45.63
25350;BME280;13302;48.796;11.978;2024-02-04T01:57:01;97673.81;;;7.17;45.47
25350;BME280;13302;48.796;11.978;2024-02-04T01:59:48;97676.25;;;7.18;45.61
25350;BME280;13302;48.796;11.978;2024-02-04T02:02:40;97663.41;;;7.14;45.42
25350;BME280;13302;48.796;11.978;2024-02-04T02:05:27;97656.06;;;7.23;45.48
25350;BME280;13302;48.796;11.978;2024-02-04T02:08:15;97649.41;;;7.02;45.76
25350;BME280;13302;48.796;11.978;2024-02-04T02:11:09;97656.53;;;7.03;45.84
25350;BME280;13302;48.796;11.978;2024-02-04T02:14:01;97646.34;;;7.03;45.95
25350;BME280;13302;48.796;11.978;2024-02-04T02:16:49;97648.16;;;7.08;45.72
25350;BME280;13302;48.796;11.978;2024-02-04T02:19:46;97643.31;;;7.05;45.80
25350;BME280;13302;48.796;11.978;2024-02-04T02:22:38;97639.53;;;7.01;45.93
25350;BME280;13302;48.796;11.978;2024-02-04T02:25:29;97642.06;;;6.97;45.81
25350;BME280;13302;48.796;11.978;2024-02-04T02:28:17;97633.03;;;6.97;46.06
25350;BME280;13302;48.796;11.978;2024-02-04T02:31:04;97643.59;;;7.03;46.39
25350;BME280;13302;48.796;11.978;2024-02-04T02:33:53;97648.56;;;7.15;45.75
25350;BME280;13302;48.796;11.978;2024-02-04T02:36:44;97636.84;;;7.09;45.85
25350;BME280;13302;48.796;11.978;2024-02-04T02:39:40;97647.09;;;7.17;45.74
25350;BME280;13302;48.796;11.978;2024-02-04T02:42:29;97644.97;;;7.14;45.87
25350;BME280;13302;48.796;11.978;2024-02-04T02:45:19;97645.31;;;7.13;45.81
25350;BME280;13302;48.796;11.978;2024-02-04T02:48:08;97635.34;;;7.03;45.94
25350;BME280;13302;48.796;11.978;2024-02-04T02:50:56;97648.19;;;6.94;46.09
25350;BME280;13302;48.796;11.978;2024-02-04T02:53:43;97644.63;;;6.93;46.08
25350;BME280;13302;48.796;11.978;2024-02-04T02:56:30;97642.69;;;6.94;46.20
25350;BME280;13302;48.796;11.978;2024-02-04T02:59:17;97648.19;;;6.94;46.29
25350;BME280;13302;48.796;11.978;2024-02-04T03:02:04;97663.28;;;6.97;46.28
25350;BME280;13302;48.796;11.978;2024-02-04T03:04:51;97653.59;;;6.99;46.03
25350;BME280;13302;48.796;11.978;2024-02-04T03:07:38;97654.22;;;6.96;46.07
25350;BME280;13302;48.796;11.978;2024-02-04T03:10:25;97645.09;;;7.09;45.79
25350;BME280;13302;48.796;11.978;2024-02-04T03:13:12;97658.66;;;7.06;46.35
25350;BME280;13302;48.796;11.978;2024-02-04T03:16:00;97657.16;;;7.00;46.35
25350;BME280;13302;48.796;11.978;2024-02-04T03:18:47;97660.38;;;7.02;46.37
25350;BME280;13302;48.796;11.978;2024-02-04T03:21:34;97660.81;;;6.95;46.65
25350;BME280;13302;48.796;11.978;2024-02-04T03:24:21;97676.69;;;6.98;46.34
25350;BME280;13302;48.796;11.978;2024-02-04T03:27:08;97678.19;;;7.18;46.07
25350;BME280;13302;48.796;11.978;2024-02-04T03:29:56;97691.34;;;7.07;46.30
25350;BME280;13302;48.796;11.978;2024-02-04T03:32:43;97688.41;;;7.04;46.31
25350;BME280;13302;48.796;11.978;2024-02-04T03:35:30;97686.88;;;6.98;46.47
25350;BME280;13302;48.796;11.978;2024-02-04T03:38:17;97670.56;;;7.01;46.85
25350;BME280;13302;48.796;11.978;2024-02-04T03:41:04;97672.09;;;6.93;47.00
25350;BME280;13302;48.796;11.978;2024-02-04T03:43:51;97682.09;;;6.89;47.06
25350;BME280;13302;48.796;11.978;2024-02-04T03:46:39;97682.38;;;7.02;46.89
25350;BME280;13302;48.796;11.978;2024-02-04T03:49:29;97684.91;;;7.12;46.41
25350;BME280;13302;48.796;11.978;2024-02-04T03:52:16;97684.53;;;7.05;46.78
25350;BME280;13302;48.796;11.978;2024-02-04T03:55:03;97685.41;;;7.14;46.78
25350;BME280;13302;48.796;11.978;2024-02-04T03:57:51;97692.97;;;7.08;46.88
25350;BME280;13302;48.796;11.978;2024-02-04T04:00:38;97686.97;;;7.06;46.76
25350;BME280;13302;48.796;11.978;2024-02-04T04:03:26;97680.78;;;7.01;46.92
25350;BME280;13302;48.796;11.978;2024-02-04T04:06:13;97665.50;;;6.95;47.41
25350;BME280;13302;48.796;11.978;2024-02-04T04:09:00;97667.75;;;6.93;47.48
25350;BME280;13302;48.796;11.978;2024-02-04T04:11:47;97673.13;;;6.98;47.27
25350;BME280;13302;48.796;11.978;2024-02-04T04:14:34;97666.50;;;6.99;47.05
25350;BME280;13302;48.796;11.978;2024-02-04T04:17:21;97675.28;;;7.01;47.23
25350;BME280;13302;48.796;11.978;2024-02-04T04:20:08;97665.00;;;6.93;47.39
25350;BME280;13302;48.796;11.978;2024-02-04T04:22:55;97664.88;;;6.98;47.10
25350;BME280;13302;48.796;11.978;2024-02-04T04:25:43;97673.94;;;6.98;47.38
25350;BME280;13302;48.796;11.978;2024-02-04T04:28:30;97667.22;;;7.04;46.98
25350;BME280;13302;48.796;11.978;2024-02-04T04:31:17;97656.22;;;7.04;47.18
25350;BME280;13302;48.796;11.978;2024-02-04T04:34:04;97658.88;;;6.96;47.07
25350;BME280;13302;48.796;11.978;2024-02-04T04:36:51;97662.09;;;7.11;46.82
25350;BME280;13302;48.796;11.978;2024-02-04T04:39:38;97655.97;;;7.14;46.51
25350;BME280;13302;48.796;11.978;2024-02-04T04:42:25;97659.28;;;7.03;47.01
25350;BME280;13302;48.796;11.978;2024-02-04T04:45:12;97656.34;;;6.85;47.30
25350;BME280;13302;48.796;11.978;2024-02-04T04:48:00;97662.16;;;6.70;47.83
25350;BME280;13302;48.796;11.978;2024-02-04T04:50:48;97665.13;;;6.87;47.15
25350;BME280;13302;48.796;11.978;2024-02-04T04:53:35;97662.66;;;6.86;47.32
25350;BME280;13302;48.796;11.978;2024-02-04T04:56:22;97665.94;;;6.88;47.19
25350;BME280;13302;48.796;11.978;2024-02-04T04:59:09;97663.03;;;6.93;47.02
25350;BME280;13302;48.796;11.978;2024-02-04T05:01:56;97659.72;;;6.82;47.28
25350;BME280;13302;48.796;11.978;2024-02-04T05:04:44;97654.50;;;6.81;47.44
25350;BME280;13302;48.796;11.978;2024-02-04T05:07:32;97651.28;;;6.79;47.34
25350;BME280;13302;48.796;11.978;2024-02-04T05:10:19;97652.69;;;6.76;47.26
25350;BME280;13302;48.796;11.978;2024-02-04T05:13:07;97660.00;;;6.81;47.21
25350;BME280;13302;48.796;11.978;2024-02-04T05:15:54;97657.50;;;6.71;47.47
25350;BME280;13302;48.796;11.978;2024-02-04T05:18:41;97650.88;;;6.72;47.61
25350;BME280;13302;48.796;11.978;2024-02-04T05:21:31;97660.63;;;6.78;47.45
25350;BME280;13302;48.796;11.978;2024-02-04T05:24:18;97669.50;;;6.75;47.53
25350;BME280;13302;48.796;11.978;2024-02-04T05:27:05;97665.22;;;6.82;47.40
25350;BME280;13302;48.796;11.978;2024-02-04T05:29:52;97665.00;;;6.79;47.21
25350;BME280;13302;48.796;11.978;2024-02-04T05:32:39;97649.72;;;6.86;47.44
25350;BME280;13302;48.796;11.978;2024-02-04T05:35:27;97656.53;;;6.89;47.14
25350;BME280;13302;48.796;11.978;2024-02-04T05:38:14;97653.88;;;6.98;46.90
25350;BME280;13302;48.796;11.978;2024-02-04T05:41:01;97649.09;;;6.89;47.29
25350;BME280;13302;48.796;11.978;2024-02-04T05:43:48;97661.84;;;6.85;47.41
25350;BME280;13302;48.796;11.978;2024-02-04T05:46:35;97660.84;;;6.81;47.60
25350;BME280;13302;48.796;11.978;2024-02-04T05:49:23;97660.53;;;6.97;47.12
25350;BME280;13302;48.796;11.978;2024-02-04T05:52:10;97662.56;;;6.77;47.47
25350;BME280;13302;48.796;11.978;2024-02-04T05:54:57;97662.47;;;6.82;47.61
25350;BME280;13302;48.796;11.978;2024-02-04T05:57:48;97659.19;;;6.80;47.41
25350;BME280;13302;48.796;11.978;2024-02-04T06:00:35;97658.09;;;6.81;47.56
25350;BME280;13302;48.796;11.978;2024-02-04T06:03:22;97664.69;;;6.80;47.50
25350;BME280;13302;48.796;11.978;2024-02-04T06:06:16;97657.97;;;6.73;47.88
25350;BME280;13302;48.796;11.978;2024-02-04T06:09:06;97664.50;;;6.77;47.63
25350;BME280;13302;48.796;11.978;2024-02-04T06:11:54;97670.19;;;6.80;47.80
25350;BME280;13302;48.796;11.978;2024-02-04T06:14:41;97673.78;;;6.67;48.28
25350;BME280;13302;48.796;11.978;2024-02-04T06:17:28;97663.59;;;6.68;48.12
25350;BME280;13302;48.796;11.978;2024-02-04T06:20:15;97667.66;;;6.70;47.70
25350;BME280;13302;48.796;11.978;2024-02-04T06:23:02;97660.44;;;6.74;48.03
25350;BME280;13302;48.796;11.978;2024-02-04T06:25:49;97662.88;;;6.76;47.68
25350;BME280;13302;48.796;11.978;2024-02-04T06:28:36;97674.38;;;6.78;47.82
25350;BME280;13302;48.796;11.978;2024-02-04T06:31:23;97655.97;;;6.78;47.53
25350;BME280;13302;48.796;11.978;2024-02-04T06:34:10;97659.19;;;6.80;47.68
25350;BME280;13302;48.796;11.978;2024-02-04T06:36:57;97664.69;;;6.80;47.79
25350;BME280;13302;48.796;11.978;2024-02-04T06:39:44;97664.19;;;6.78;47.79
25350;BME280;13302;48.796;11.978;2024-02-04T06:42:31;97673.25;;;6.79;47.52
25350;BME280;13302;48.796;11.978;2024-02-04T06:45:18;97676.09;;;6.74;47.61
25350;BME280;13302;48.796;11.978;2024-02-04T06:48:06;97670.50;;;6.79;47.76
25350;BME280;13302;48.796;11.978;2024-02-04T06:50:54;97668.06;;;6.77;47.93
25350;BME280;13302;48.796;11.978;2024-02-04T06:53:41;97665.22;;;6.82;47.53
25350;BME280;13302;48.796;11.978;2024-02-04T06:56:28;97669.50;;;6.75;47.79
25350;BME280;13302;48.796;11.978;2024-02-04T06:59:15;97665.31;;;6.77;47.81
25350;BME280;13302;48.796;11.978;2024-02-04T07:02:02;97670.09;;;6.85;47.46
25350;BME280;13302;48.796;11.978;2024-02-04T07:04:49;97673.16;;;6.70;47.82
25350;BME280;13302;48.796;11.978;2024-02-04T07:07:40;97670.31;;;6.75;47.65
25350;BME280;13302;48.796;11.978;2024-02-04T07:10:27;97681.28;;;6.89;47.37
25350;BME280;13302;48.796;11.978;2024-02-04T07:13:14;97676.31;;;6.77;47.43
25350;BME280;13302;48.796;11.978;2024-02-04T07:16:01;97670.59;;;6.74;47.74
25350;BME280;13302;48.796;11.978;2024-02-04T07:18:48;97672.53;;;6.73;47.87
25350;BME280;13302;48.796;11.978;2024-02-04T07:21:36;97673.97;;;6.71;47.79
25350;BME280;13302;48.796;11.978;2024-02-04T07:24:23;97670.13;;;6.72;47.74
25350;BME280;13302;48.796;11.978;2024-02-04T07:27:10;97677.84;;;6.56;48.15
25350;BME280;13302;48.796;11.978;2024-02-04T07:29:57;97665.34;;;6.64;47.54
25350;BME280;13302;48.796;11.978;2024-02-04T07:32:44;97673.47;;;6.55;47.78
25350;BME280;13302;48.796;11.978;2024-02-04T07:35:31;97667.56;;;6.62;47.80
25350;BME280;13302;48.796;11.978;2024-02-04T07:38:19;97670.41;;;6.70;47.70
25350;BME280;13302;48.796;11.978;2024-02-04T07:41:06;97668.78;;;6.69;47.58
25350;BME280;13302;48.796;11.978;2024-02-04T07:43:53;97657.09;;;6.64;47.74
25350;BME280;13302;48.796;11.978;2024-02-04T07:46:40;97658.31;;;6.71;47.74
25350;BME280;13302;48.796;11.978;2024-02-04T07:49:27;97671.53;;;6.56;47.81
25350;BME280;13302;48.796;11.978;2024-02-04T07:52:14;97673.25;;;6.65;47.61
25350;BME280;13302;48.796;11.978;2024-02-04T07:55:01;97662.28;;;6.79;47.27
25350;BME280;13302;48.796;11.978;2024-02-04T07:57:48;97667.03;;;6.73;47.59
25350;BME280;13302;48.796;11.978;2024-02-04T08:00:35;97675.47;;;6.77;47.47
25350;BME280;13302;48.796;11.978;2024-02-04T08:03:23;97667.88;;;6.74;47.58
25350;BME280;13302;48.796;11.978;2024-02-04T08:06:10;97666.94;;;6.78;47.31
25350;BME280;13302;48.796;11.978;2024-02-04T08:08:57;97660.00;;;6.81;47.40
25350;BME280;13302;48.796;11.978;2024-02-04T08:11:44;97660.53;;;6.69;47.54
25350;BME280;13302;48.796;11.978;2024-02-04T08:14:31;97652.50;;;6.73;47.54
25350;BME280;13302;48.796;11.978;2024-02-04T08:17:18;97669.78;;;6.73;47.67
25350;BME280;13302;48.796;11.978;2024-02-04T08:20:05;97660.94;;;6.76;47.32
25350;BME280;13302;48.796;11.978;2024-02-04T08:22:54;97663.69;;;6.76;47.29
25350;BME280;13302;48.796;11.978;2024-02-04T08:25:41;97654.13;;;6.60;47.78
25350;BME280;13302;48.796;11.978;2024-02-04T08:28:28;97654.41;;;6.72;47.50
25350;BME280;13302;48.796;11.978;2024-02-04T08:31:16;97639.47;;;6.65;47.76
25350;BME280;13302;48.796;11.978;2024-02-04T08:34:03;97636.22;;;6.63;47.84
25350;BME280;13302;48.796;11.978;2024-02-04T08:36:50;97638.88;;;6.68;47.60
25350;BME280;13302;48.796;11.978;2024-02-04T08:39:37;97637.94;;;6.72;47.70
25350;BME280;13302;48.796;11.978;2024-02-04T08:42:24;97637.06;;;6.63;47.69
25350;BME280;13302;48.796;11.978;2024-02-04T08:45:12;97633.78;;;6.61;48.05
25350;BME280;13302;48.796;11.978;2024-02-04T08:47:59;97632.03;;;6.65;47.59
25350;BME280;13302;48.796;11.978;2024-02-04T08:50:46;97628.56;;;6.73;47.61
25350;BME280;13302;48.796;11.978;2024-02-04T08:53:33;97621.03;;;6.79;47.51
25350;BME280;13302;48.796;11.978;2024-02-04T08:56:20;97631.53;;;6.77;47.39
25350;BME280;13302;48.796;11.978;2024-02-04T08:59:07;97629.19;;;6.84;47.31
25350;BME280;13302;48.796;11.978;2024-02-04T09:01:54;97620.66;;;6.72;47.77
25350;BME280;13302;48.796;11.978;2024-02-04T09:04:41;97618.50;;;6.82;47.33
25350;BME280;13302;48.796;11.978;2024-02-04T09:07:29;97618.78;;;6.81;47.30
25350;BME280;13302;48.796;11.978;2024-02-04T09:10:20;97626.34;;;6.75;47.46
25350;BME280;13302;48.796;11.978;2024-02-04T09:13:07;97639.66;;;6.82;47.30
25350;BME280;13302;48.796;11.978;2024-02-04T09:15:54;97634.16;;;6.82;47.28
25350;BME280;13302;48.796;11.978;2024-02-04T09:18:41;97638.22;;;6.84;47.29
25350;BME280;13302;48.796;11.978;2024-02-04T09:21:28;97637.84;;;6.77;47.40
25350;BME280;13302;48.796;11.978;2024-02-04T09:24:15;97626.84;;;6.77;47.52
25350;BME280;13302;48.796;11.978;2024-02-04T09:27:03;97624.41;;;6.76;47.27
25350;BME280;13302;48.796;11.978;2024-02-04T09:29:50;97635.78;;;6.83;47.38
25350;BME280;13302;48.796;11.978;2024-02-04T09:32:37;97657.78;;;6.83;47.35
25350;BME280;13302;48.796;11.978;2024-02-04T09:35:25;97654.66;;;6.62;47.47
25350;BME280;13302;48.796;11.978;2024-02-04T09:38:12;97644.44;;;6.76;47.15
25350;BME280;13302;48.796;11.978;2024-02-04T09:41:01;97654.94;;;6.74;47.38
25350;BME280;13302;48.796;11.978;2024-02-04T09:43:51;97656.44;;;6.94;47.01
25350;BME280;13302;48.796;11.978;2024-02-04T09:46:38;97669.16;;;6.90;47.28
25350;BME280;13302;48.796;11.978;2024-02-04T09:49:27;97668.97;;;6.86;47.25
25350;BME280;13302;48.796;11.978;2024-02-04T09:52:18;97644.97;;;6.78;47.74
25350;BME280;13302;48.796;11.978;2024-02-04T09:55:09;97642.13;;;6.83;47.56
25350;BME280;13302;48.796;11.978;2024-02-04T09:57:56;97635.69;;;6.88;47.40
25350;BME280;13302;48.796;11.978;2024-02-04T10:00:45;97636.56;;;6.97;46.99
25350;BME280;13302;48.796;11.978;2024-02-04T10:03:34;97642.59;;;6.99;47.50
25350;BME280;13302;48.796;11.978;2024-02-04T10:06:21;97635.56;;;6.93;47.61
25350;BME280;13302;48.796;11.978;2024-02-04T10:09:09;97628.88;;;6.85;47.28
25350;BME280;13302;48.796;11.978;2024-02-04T10:11:57;97632.31;;;6.91;47.12
25350;BME280;13302;48.796;11.978;2024-02-04T10:14:44;97637.91;;;7.00;47.08
25350;BME280;13302;48.796;11.978;2024-02-04T10:17:31;97645.16;;;6.96;47.23
25350;BME280;13302;48.796;11.978;2024-02-04T10:20:18;97649.72;;;6.86;47.43
25350;BME280;13302;48.796;11.978;2024-02-04T10:23:06;97649.19;;;6.98;47.15
25350;BME280;13302;48.796;11.978;2024-02-04T10:26:00;97657.34;;;6.89;47.41
25350;BME280;13302;48.796;11.978;2024-02-04T10:28:52;97640.47;;;6.96;47.65
25350;BME280;13302;48.796;11.978;2024-02-04T10:31:39;97646.66;;;7.02;47.28
25350;BME280;13302;48.796;11.978;2024-02-04T10:34:27;97640.13;;;6.98;47.61
25350;BME280;13302;48.796;11.978;2024-02-04T10:37:14;97633.09;;;7.05;47.63
25350;BME280;13302;48.796;11.978;2024-02-04T10:40:02;97626.19;;;7.08;47.57
25350;BME280;13302;48.796;11.978;2024-02-04T10:42:50;97604.41;;;6.98;47.58
25350;BME280;13302;48.796;11.978;2024-02-04T10:45:38;97595.69;;;7.18;47.48
25350;BME280;13302;48.796;11.978;2024-02-04T10:48:29;97600.09;;;7.05;47.54
25350;BME280;13302;48.796;11.978;2024-02-04T10:51:17;97612.63;;;7.11;47.77
25350;BME280;13302;48.796;11.978;2024-02-04T10:54:11;97582.25;;;7.16;47.54
25350;BME280;13302;48.796;11.978;2024-02-04T10:57:03;97585.19;;;7.20;47.16
25350;BME280;13302;48.796;11.978;2024-02-04T10:59:53;97584.69;;;7.18;47.13
25350;BME280;13302;48.796;11.978;2024-02-04T11:02:42;97599.44;;;7.22;47.39
25350;BME280;13302;48.796;11.978;2024-02-04T11:05:30;97593.69;;;7.32;47.23
25350;BME280;13302;48.796;11.978;2024-02-04T11:08:18;97600.84;;;7.33;47.31
25350;BME280;13302;48.796;11.978;2024-02-04T11:11:06;97604.00;;;7.26;47.25
25350;BME280;13302;48.796;11.978;2024-02-04T11:13:56;97591.44;;;7.34;46.69
25350;BME280;13302;48.796;11.978;2024-02-04T11:17:16;97591.16;;;7.35;46.80
25350;BME280;13302;48.796;11.978;2024-02-04T11:20:22;97579.88;;;7.23;46.74
25350;BME280;13302;48.796;11.978;2024-02-04T11:26:15;97576.53;;;7.49;46.21
25350;BME280;13302;48.796;11.978;2024-02-04T11:29:03;97568.72;;;7.42;46.49
25350;BME280;13302;48.796;11.978;2024-02-04T11:31:51;97556.94;;;7.50;46.34
25350;BME280;13302;48.796;11.978;2024-02-04T11:34:38;97568.16;;;7.54;46.20
25350;BME280;13302;48.796;11.978;2024-02-04T11:37:26;97560.69;;;7.32;46.60
25350;BME280;13302;48.796;11.978;2024-02-04T11:40:14;97555.59;;;7.39;46.42
25350;BME280;13302;48.796;11.978;2024-02-04T11:43:09;97545.41;;;7.40;46.77
25350;BME280;13302;48.796;11.978;2024-02-04T11:45:57;97551.72;;;7.40;46.67
25350;BME280;13302;48.796;11.978;2024-02-04T11:48:51;97556.41;;;7.40;46.55
25350;BME280;13302;48.796;11.978;2024-02-04T11:51:40;97541.34;;;7.37;46.62
25350;BME280;13302;48.796;11.978;2024-02-04T11:54:30;97543.28;;;7.36;46.43
25350;BME280;13302;48.796;11.978;2024-02-04T11:57:17;97540.84;;;7.35;46.58
25350;BME280;13302;48.796;11.978;2024-02-04T12:00:05;97534.72;;;7.38;46.62
25350;BME280;13302;48.796;11.978;2024-02-04T12:03:01;97535.28;;;7.49;46.48
25350;BME280;13302;48.796;11.978;2024-02-04T12:05:50;97541.41;;;7.46;46.29
25350;BME280;13302;48.796;11.978;2024-02-04T12:08:37;97532.66;;;7.44;46.73
25350;BME280;13302;48.796;11.978;2024-02-04T12:11:25;97535.09;;;7.45;46.71
25350;BME280;13302;48.796;11.978;2024-02-04T12:14:13;97533.00;;;7.28;46.82
25350;BME280;13302;48.796;11.978;2024-02-04T12:17:07;97524.03;;;7.36;46.71
25350;BME280;13302;48.796;11.978;2024-02-04T12:19:56;97519.06;;;7.47;46.65
25350;BME280;13302;48.796;11.978;2024-02-04T12:22:43;97512.16;;;7.50;46.34
25350;BME280;13302;48.796;11.978;2024-02-04T12:25:34;97517.00;;;7.53;46.49
25350;BME280;13302;48.796;11.978;2024-02-04T12:28:22;97507.44;;;7.50;46.48
25350;BME280;13302;48.796;11.978;2024-02-04T12:31:20;97502.13;;;7.54;46.49
25350;BME280;13302;48.796;11.978;2024-02-04T12:34:08;97496.00;;;7.57;46.34
25350;BME280;13302;48.796;11.978;2024-02-04T12:36:59;97484.44;;;7.46;46.61
25350;BME280;13302;48.796;11.978;2024-02-04T12:39:47;97474.41;;;7.50;46.54
25350;BME280;13302;48.796;11.978;2024-02-04T12:42:34;97477.03;;;7.55;46.56
25350;BME280;13302;48.796;11.978;2024-02-04T12:45:22;97472.19;;;7.52;46.57
25350;BME280;13302;48.796;11.978;2024-02-04T12:48:09;97462.28;;;7.51;46.40
25350;BME280;13302;48.796;11.978;2024-02-04T12:51:01;97455.38;;;7.54;46.38
25350;BME280;13302;48.796;11.978;2024-02-04T12:54:01;97455.66;;;7.52;46.47
25350;BME280;13302;48.796;11.978;2024-02-04T12:56:50;97464.75;;;7.53;46.62
25350;BME280;13302;48.796;11.978;2024-02-04T12:59:37;97464.78;;;7.61;46.61
25350;BME280;13302;48.796;11.978;2024-02-04T13:02:24;97464.78;;;7.61;46.46
25350;BME280;13302;48.796;11.978;2024-02-04T13:05:21;97472.06;;;7.57;46.68
25350;BME280;13302;48.796;11.978;2024-02-04T13:08:09;97469.28;;;7.57;46.52
25350;BME280;13302;48.796;11.978;2024-02-04T13:10:57;97460.88;;;7.54;46.64
25350;BME280;13302;48.796;11.978;2024-02-04T13:13:44;97468.66;;;7.60;46.56
25350;BME280;13302;48.796;11.978;2024-02-04T13:16:31;97452.78;;;7.57;46.46
25350;BME280;13302;48.796;11.978;2024-02-04T13:19:18;97456.34;;;7.58;46.54
25350;BME280;13302;48.796;11.978;2024-02-04T13:22:06;97459.28;;;7.61;46.66
25350;BME280;13302;48.796;11.978;2024-02-04T13:24:54;97462.84;;;7.62;46.56
25350;BME280;13302;48.796;11.978;2024-02-04T13:27:41;97457.47;;;7.57;46.48
25350;BME280;13302;48.796;11.978;2024-02-04T13:30:29;97455.03;;;7.55;46.65
25350;BME280;13302;48.796;11.978;2024-02-04T13:33:16;97453.59;;;7.58;46.46
25350;BME280;13302;48.796;11.978;2024-02-04T13:36:04;97447.16;;;7.62;46.22
25350;BME280;13302;48.796;11.978;2024-02-04T13:38:51;97451.63;;;7.50;46.71
25350;BME280;13302;48.796;11.978;2024-02-04T13:41:39;97460.72;;;7.59;46.32
25350;BME280;13302;48.796;11.978;2024-02-04T13:44:26;97459.31;;;7.70;46.42
25350;BME280;13302;48.796;11.978;2024-02-04T13:47:13;97456.66;;;7.56;46.52
25350;BME280;13302;48.796;11.978;2024-02-04T13:50:01;97452.44;;;7.59;46.52
25350;BME280;13302;48.796;11.978;2024-02-04T13:52:50;97447.41;;;7.52;47.05
25350;BME280;13302;48.796;11.978;2024-02-04T13:55:37;97444.19;;;7.59;46.85
25350;BME280;13302;48.796;11.978;2024-02-04T13:58:25;97440.50;;;7.63;46.56
25350;BME280;13302;48.796;11.978;2024-02-04T14:01:13;97435.94;;;7.59;46.69
25350;BME280;13302;48.796;11.978;2024-02-04T14:04:02;97440.66;;;7.67;46.46
25350;BME280;13302;48.796;11.978;2024-02-04T14:06:50;97446.00;;;7.63;46.67
25350;BME280;13302;48.796;11.978;2024-02-04T14:09:37;97434.00;;;7.59;46.84
25350;BME280;13302;48.796;11.978;2024-02-04T14:12:24;97421.88;;;7.60;47.14
25350;BME280;13302;48.796;11.978;2024-02-04T14:15:12;97429.66;;;7.67;46.75
25350;BME280;13302;48.796;11.978;2024-02-04T14:17:59;97419.31;;;7.64;46.87
25350;BME280;13302;48.796;11.978;2024-02-04T14:20:46;97416.09;;;7.70;47.04
25350;BME280;13302;48.796;11.978;2024-02-04T14:23:33;97420.78;;;7.70;46.97
25350;BME280;13302;48.796;11.978;2024-02-04T14:26:21;97422.91;;;7.73;47.03
25350;BME280;13302;48.796;11.978;2024-02-04T14:29:08;97444.41;;;7.71;46.75
25350;BME280;13302;48.796;11.978;2024-02-04T14:31:55;97429.25;;;7.82;46.60
25350;BME280;13302;48.796;11.978;2024-02-04T14:34:44;97424.34;;;7.70;46.71
25350;BME280;13302;48.796;11.978;2024-02-04T14:37:32;97438.91;;;7.71;46.63
25350;BME280;13302;48.796;11.978;2024-02-04T14:40:19;97442.97;;;7.73;46.57
25350;BME280;13302;48.796;11.978;2024-02-04T14:43:06;97442.97;;;7.73;46.88
25350;BME280;13302;48.796;11.978;2024-02-04T14:45:53;97439.41;;;7.73;47.07
25350;BME280;13302;48.796;11.978;2024-02-04T14:48:40;97441.38;;;7.81;46.37
25350;BME280;13302;48.796;11.978;2024-02-04T14:51:30;97448.16;;;7.75;46.84
25350;BME280;13302;48.796;11.978;2024-02-04T14:54:18;97444.59;;;7.74;46.74